Time;durP1;ratioP1;P1;durP2;ratioP2;P2;SDS_P1;SDS_P2;PMS_P1;PMS_P2;Temp;Humidity;BMP_temperature;BMP_pressure;BME280_temperature;BME280_humidity;BME280_pressure;Samples;Min_cycle;Max_cycle;Signal;HPM_P1;HPM_P2
2023/04/28 00:00:27;;;;;;;17.43;13.80;;;14.50;97.10;;;;;;4996232;28;20298;-30
2023/04/28 00:02:59;;;;;;;22.23;14.50;;;14.50;97.10;;;;;;5004047;28;20214;-30
2023/04/28 00:05:31;;;;;;;20.67;14.93;;;14.50;97.20;;;;;;4985137;28;20590;-30
2023/04/28 00:08:02;;;;;;;18.57;14.53;;;14.50;97.20;;;;;;4984771;28;20199;-30
2023/04/28 00:10:35;;;;;;;19.37;14.13;;;14.40;97.20;;;;;;4987468;28;20228;-30
2023/04/28 00:13:02;;;;;;;20.93;14.73;;;14.40;97.50;;;;;;4996335;28;20643;-30
2023/04/28 00:15:29;;;;;;;20.77;15.20;;;14.30;97.40;;;;;;4985415;28;20198;-30
2023/04/28 00:18:01;;;;;;;20.47;15.57;;;14.30;97.50;;;;;;5011375;28;20218;-32
2023/04/28 00:20:28;;;;;;;20.37;14.73;;;14.30;97.50;;;;;;5002241;28;20204;-30
2023/04/28 00:22:57;;;;;;;19.60;15.07;;;14.30;97.60;;;;;;4983216;28;20198;-30
2023/04/28 00:25:29;;;;;;;20.57;15.00;;;14.20;97.60;;;;;;5003008;28;20210;-30
2023/04/28 00:28:01;;;;;;;21.13;14.73;;;14.20;97.70;;;;;;5002893;28;20644;-30
2023/04/28 00:30:31;;;;;;;21.80;15.07;;;14.20;97.70;;;;;;5019988;28;20869;-30
2023/04/28 00:33:00;;;;;;;19.17;15.03;;;14.20;97.60;;;;;;5015994;28;20779;-31
2023/04/28 00:35:30;;;;;;;23.08;16.33;;;14.10;97.60;;;;;;5001563;28;20229;-30
2023/04/28 00:37:57;;;;;;;22.27;15.50;;;14.10;97.60;;;;;;5004504;28;20205;-30
2023/04/28 00:40:35;;;;;;;21.07;14.67;;;14.00;97.50;;;;;;5002348;28;20194;-30
2023/04/28 00:43:03;;;;;;;18.93;15.20;;;14.00;97.90;;;;;;4999927;28;20201;-30
2023/04/28 00:45:37;;;;;;;20.20;16.20;;;13.90;97.60;;;;;;5005017;28;20572;-30
2023/04/28 00:48:09;;;;;;;20.90;15.53;;;13.90;97.70;;;;;;5004866;28;20202;-30
2023/04/28 00:50:39;;;;;;;20.10;16.13;;;13.90;97.80;;;;;;5017700;28;20208;-30
2023/04/28 00:53:09;;;;;;;22.70;16.57;;;13.80;97.80;;;;;;5014807;28;20221;-31
2023/04/28 00:55:39;;;;;;;19.52;16.35;;;13.80;97.70;;;;;;5006913;28;20194;-31
2023/04/28 00:58:07;;;;;;;20.80;15.63;;;13.80;97.90;;;;;;5055158;28;20231;-31
2023/04/28 01:00:34;;;;;;;21.07;15.70;;;13.80;97.90;;;;;;5033395;28;20393;-31
2023/04/28 01:03:01;;;;;;;19.97;15.40;;;13.70;97.80;;;;;;5042967;28;20690;-30
2023/04/28 01:05:32;;;;;;;22.17;15.70;;;13.70;97.90;;;;;;5043595;28;20208;-30
2023/04/28 01:08:04;;;;;;;19.87;16.03;;;13.70;98.10;;;;;;5030085;28;20211;-31
2023/04/28 01:10:33;;;;;;;22.00;15.80;;;13.70;98.20;;;;;;5036197;28;20643;-31
2023/04/28 01:13:06;;;;;;;20.83;16.30;;;13.70;98.30;;;;;;5035608;28;20643;-30
2023/04/28 01:15:37;;;;;;;22.47;17.87;;;13.70;98.60;;;;;;5035583;28;20209;-31
2023/04/28 01:18:05;;;;;;;22.07;16.73;;;13.70;98.40;;;;;;5037847;28;20210;-30
2023/04/28 01:20:32;;;;;;;23.33;16.53;;;13.60;98.20;;;;;;5045031;28;20212;-31
2023/04/28 01:23:01;;;;;;;24.37;17.80;;;13.60;98.30;;;;;;5041702;28;20222;-31
2023/04/28 01:25:28;;;;;;;22.90;17.10;;;13.60;98.60;;;;;;5039361;28;20697;-31
2023/04/28 01:27:58;;;;;;;21.00;16.47;;;13.50;98.20;;;;;;5038500;28;20300;-31
2023/04/28 01:30:25;;;;;;;23.93;16.87;;;13.50;98.20;;;;;;5039870;28;20533;-31
2023/04/28 01:32:57;;;;;;;20.73;17.13;;;13.50;98.30;;;;;;5040292;28;20318;-31
2023/04/28 01:35:24;;;;;;;24.27;16.70;;;13.50;98.30;;;;;;5043171;28;20192;-30
2023/04/28 01:37:54;;;;;;;21.53;16.13;;;13.40;98.30;;;;;;5051190;28;20219;-30
2023/04/28 01:40:26;;;;;;;22.30;17.53;;;13.40;98.40;;;;;;5059837;28;20283;-30
2023/04/28 01:42:55;;;;;;;18.83;15.43;;;13.40;98.40;;;;;;5051949;28;20203;-31
2023/04/28 01:45:29;;;;;;;23.47;16.97;;;13.30;98.30;;;;;;5063486;28;20215;-30
2023/04/28 01:47:58;;;;;;;22.07;16.33;;;13.30;98.60;;;;;;5049745;28;20217;-31
2023/04/28 01:50:26;;;;;;;21.50;16.23;;;13.30;98.60;;;;;;5021748;28;20212;-30
2023/04/28 01:52:53;;;;;;;19.20;15.77;;;13.30;98.80;;;;;;5023192;28;20301;-30
2023/04/28 01:55:25;;;;;;;22.13;16.53;;;13.30;98.80;;;;;;5023080;28;20382;-30
2023/04/28 01:57:56;;;;;;;22.07;15.70;;;13.20;98.90;;;;;;5031504;28;20228;-31
2023/04/28 02:00:29;;;;;;;19.93;15.73;;;13.20;98.70;;;;;;5025129;28;20774;-31
2023/04/28 02:02:59;;;;;;;20.77;15.57;;;13.20;98.80;;;;;;5052151;28;20208;-31
2023/04/28 02:05:26;;;;;;;20.33;15.90;;;13.20;98.80;;;;;;5041867;28;20574;-30
2023/04/28 02:07:55;;;;;;;21.77;15.77;;;13.20;99.10;;;;;;5046125;28;20209;-31
2023/04/28 02:10:25;;;;;;;23.67;16.50;;;13.20;98.80;;;;;;5067980;28;20200;-31
2023/04/28 02:12:54;;;;;;;20.33;15.50;;;13.20;98.70;;;;;;5057184;28;20227;-31
2023/04/28 02:15:24;;;;;;;22.67;16.60;;;13.20;98.80;;;;;;5050673;28;20213;-31
2023/04/28 02:17:51;;;;;;;21.90;15.67;;;13.20;98.80;;;;;;5046384;28;20653;-31
2023/04/28 02:20:22;;;;;;;19.50;14.77;;;13.20;98.80;;;;;;5067293;28;20196;-31
2023/04/28 02:22:52;;;;;;;19.50;15.33;;;13.20;99.00;;;;;;5067043;28;20203;-30
2023/04/28 02:25:19;;;;;;;21.37;15.53;;;13.20;98.90;;;;;;5052540;28;20204;-31
2023/04/28 02:27:49;;;;;;;20.00;14.70;;;13.20;99.10;;;;;;5049681;28;20203;-30
2023/04/28 02:30:18;;;;;;;18.83;14.23;;;13.20;99.10;;;;;;5065114;28;20199;-31
2023/04/28 02:32:46;;;;;;;17.20;14.17;;;13.20;99.00;;;;;;5058702;28;20315;-30
2023/04/28 02:35:16;;;;;;;20.50;14.17;;;13.20;99.00;;;;;;5049990;28;20203;-31
2023/04/28 02:37:45;;;;;;;20.53;14.43;;;13.20;98.90;;;;;;5066421;28;20277;-31
2023/04/28 02:40:13;;;;;;;20.03;14.47;;;13.20;98.90;;;;;;5064988;28;20222;-30
2023/04/28 02:42:40;;;;;;;18.43;15.47;;;13.20;99.00;;;;;;5051389;28;20215;-31
2023/04/28 02:45:08;;;;;;;19.03;15.93;;;13.30;99.10;;;;;;5055063;28;20278;-31
2023/04/28 02:47:40;;;;;;;19.63;15.60;;;13.20;99.30;;;;;;5043755;28;20539;-31
2023/04/28 02:50:10;;;;;;;20.57;16.13;;;13.20;99.40;;;;;;5027973;28;20648;-31
2023/04/28 02:52:40;;;;;;;21.73;15.63;;;13.20;99.90;;;;;;5040614;28;20224;-31
2023/04/28 02:55:10;;;;;;;20.27;15.37;;;13.20;99.90;;;;;;5026521;28;20201;-31
2023/04/28 02:57:37;;;;;;;19.87;14.80;;;13.20;99.50;;;;;;5029401;28;20374;-31
2023/04/28 03:00:05;;;;;;;23.50;15.80;;;13.20;99.40;;;;;;5065315;28;20738;-31
2023/04/28 03:02:35;;;;;;;18.77;14.37;;;13.20;99.50;;;;;;5064700;28;20199;-31
2023/04/28 03:05:05;;;;;;;19.07;15.17;;;13.20;99.50;;;;;;5064693;28;20779;-30
2023/04/28 03:07:37;;;;;;;19.27;15.33;;;13.20;99.80;;;;;;5046562;28;20212;-30
2023/04/28 03:10:08;;;;;;;18.30;14.93;;;13.20;99.80;;;;;;5044236;28;20299;-30
2023/04/28 03:12:37;;;;;;;19.07;14.63;;;13.10;99.60;;;;;;5025743;28;20798;-31
2023/04/28 03:15:10;;;;;;;19.23;15.50;;;13.10;99.80;;;;;;5060942;28;20315;-30
2023/04/28 03:17:42;;;;;;;19.87;15.67;;;13.10;99.60;;;;;;5064319;28;20567;-31
2023/04/28 03:20:10;;;;;;;21.57;15.57;;;13.10;99.70;;;;;;5054597;28;20634;-31
2023/04/28 03:22:44;;;;;;;21.23;15.03;;;13.10;99.80;;;;;;5056881;28;20274;-31
2023/04/28 03:25:16;;;;;;;22.27;15.27;;;13.10;99.90;;;;;;5029837;28;20282;-31
2023/04/28 03:27:43;;;;;;;20.17;14.57;;;13.10;99.70;;;;;;5025792;28;20201;-31
2023/04/28 03:30:10;;;;;;;24.70;16.17;;;13.10;99.70;;;;;;5040702;28;20747;-31
2023/04/28 03:32:38;;;;;;;24.00;16.77;;;13.20;99.80;;;;;;5045669;28;20315;-31
2023/04/28 03:35:07;;;;;;;23.00;16.57;;;13.20;99.90;;;;;;5046540;28;20223;-31
2023/04/28 03:37:37;;;;;;;23.23;17.00;;;13.20;99.80;;;;;;5044828;28;20650;-30
2023/04/28 03:40:10;;;;;;;25.30;16.60;;;13.20;99.90;;;;;;5035217;28;20205;-31
2023/04/28 03:42:40;;;;;;;21.17;16.10;;;13.20;99.90;;;;;;5042694;28;20278;-35
2023/04/28 03:45:07;;;;;;;19.43;15.40;;;13.10;99.90;;;;;;5031290;28;20303;-35
2023/04/28 03:47:37;;;;;;;20.00;15.87;;;13.10;99.90;;;;;;5024299;28;20719;-35
2023/04/28 03:50:07;;;;;;;20.50;15.80;;;13.20;99.90;;;;;;5032390;28;20303;-35
2023/04/28 03:52:36;;;;;;;20.53;14.77;;;13.20;99.90;;;;;;5045631;28;20224;-35
2023/04/28 03:55:04;;;;;;;19.47;15.77;;;13.20;99.90;;;;;;5045538;28;20200;-35
2023/04/28 03:57:31;;;;;;;20.83;15.43;;;13.20;99.90;;;;;;5043211;28;20390;-35
2023/04/28 04:00:00;;;;;;;19.83;15.30;;;13.20;99.90;;;;;;5040837;28;20247;-35
2023/04/28 04:02:28;;;;;;;20.63;14.87;;;13.20;99.90;;;;;;5044730;28;20204;-35
2023/04/28 04:05:00;;;;;;;20.33;15.23;;;13.20;99.90;;;;;;5042973;28;20250;-35
2023/04/28 04:07:27;;;;;;;19.53;16.13;;;13.20;99.90;;;;;;5043574;28;20372;-35
2023/04/28 04:09:56;;;;;;;20.63;16.50;;;13.20;99.90;;;;;;5048609;28;20198;-35
2023/04/28 04:12:26;;;;;;;19.33;14.57;;;13.20;99.90;;;;;;5041371;28;20327;-34
2023/04/28 04:14:53;;;;;;;20.57;15.90;;;13.30;99.90;;;;;;5041534;28;20205;-34
2023/04/28 04:17:20;;;;;;;21.43;15.80;;;13.30;99.90;;;;;;5043032;28;20331;-34
2023/04/28 04:19:47;;;;;;;22.40;15.73;;;13.30;99.90;;;;;;5048177;28;20234;-34
2023/04/28 04:22:17;;;;;;;21.87;15.37;;;13.30;99.90;;;;;;5047844;28;20219;-34
2023/04/28 04:24:44;;;;;;;20.42;15.13;;;13.30;99.90;;;;;;5044872;28;20712;-34
2023/04/28 04:27:14;;;;;;;21.80;16.07;;;13.30;99.90;;;;;;5044485;28;20568;-34
2023/04/28 04:29:49;;;;;;;21.13;16.38;;;13.30;99.90;;;;;;5062748;28;20227;-34
2023/04/28 04:32:16;;;;;;;22.23;16.10;;;13.30;99.90;;;;;;5043966;28;20312;-34
2023/04/28 04:34:43;;;;;;;20.95;16.38;;;13.30;99.90;;;;;;5041001;28;21914;-34
2023/04/28 04:37:13;;;;;;;19.45;15.57;;;13.40;99.90;;;;;;5024197;28;20328;-34
2023/04/28 04:39:42;;;;;;;19.70;16.15;;;13.40;99.90;;;;;;5040295;28;20351;-34
2023/04/28 04:42:14;;;;;;;19.30;16.17;;;13.40;99.90;;;;;;5029326;28;20715;-34
2023/04/28 04:44:53;;;;;;;19.33;16.20;;;13.40;99.90;;;;;;5047811;28;20211;-34
2023/04/28 04:47:20;;;;;;;20.67;16.37;;;13.40;99.90;;;;;;5063988;28;20580;-34
2023/04/28 04:49:49;;;;;;;19.13;15.30;;;13.40;99.90;;;;;;5039442;28;20223;-34
2023/04/28 04:52:18;;;;;;;19.40;15.83;;;13.40;99.90;;;;;;5024646;28;20681;-34
2023/04/28 04:54:45;;;;;;;23.50;15.70;;;13.40;99.90;;;;;;5039721;28;21676;-34
2023/04/28 04:57:16;;;;;;;19.35;15.18;;;13.40;99.90;;;;;;5058526;28;20318;-34
2023/04/28 04:59:43;;;;;;;18.73;16.05;;;13.50;99.90;;;;;;5042285;28;20215;-35
2023/04/28 05:02:10;;;;;;;19.00;15.80;;;13.50;99.90;;;;;;5042764;28;20211;-34
2023/04/28 05:04:44;;;;;;;19.60;16.60;;;13.50;99.90;;;;;;5031671;28;20220;-34
2023/04/28 05:07:15;;;;;;;20.70;16.50;;;13.50;99.90;;;;;;5031470;28;20807;-34
2023/04/28 05:09:42;;;;;;;21.00;15.67;;;13.60;99.90;;;;;;5028047;28;20202;-34
2023/04/28 05:12:16;;;;;;;19.10;16.60;;;13.60;99.90;;;;;;5045702;28;20215;-34
2023/04/28 05:14:45;;;;;;;19.00;15.87;;;13.60;99.90;;;;;;5042977;28;20243;-34
2023/04/28 05:17:12;;;;;;;18.97;16.43;;;13.60;99.90;;;;;;5049742;28;20634;-34
2023/04/28 05:19:44;;;;;;;19.83;16.50;;;13.70;99.90;;;;;;5042007;28;20196;-34
2023/04/28 05:22:16;;;;;;;21.30;15.50;;;13.70;99.90;;;;;;5041735;28;20330;-35
2023/04/28 05:24:46;;;;;;;19.67;16.03;;;13.70;99.90;;;;;;5049508;28;20936;-34
2023/04/28 05:27:13;;;;;;;19.88;16.42;;;13.70;99.90;;;;;;5040420;28;20196;-34
2023/04/28 05:29:42;;;;;;;22.07;16.20;;;13.80;99.90;;;;;;5033578;28;20232;-34
2023/04/28 05:32:09;;;;;;;20.40;15.70;;;13.80;99.90;;;;;;5043349;28;20200;-34
2023/04/28 05:34:39;;;;;;;18.37;15.80;;;13.80;99.90;;;;;;5046518;28;20223;-31
2023/04/28 05:37:08;;;;;;;23.47;15.87;;;13.80;99.90;;;;;;5038918;28;20211;-31
2023/04/28 05:39:35;;;;;;;19.13;15.40;;;13.90;99.90;;;;;;5042323;28;20382;-31
2023/04/28 05:42:03;;;;;;;20.80;16.27;;;13.90;99.90;;;;;;5056197;28;20630;-31
2023/04/28 05:44:32;;;;;;;19.38;15.50;;;13.90;99.90;;;;;;5045570;28;20204;-31
2023/04/28 05:47:02;;;;;;;20.27;14.93;;;13.90;99.90;;;;;;5039403;28;20266;-31
2023/04/28 05:49:33;;;;;;;20.10;16.25;;;14.00;99.90;;;;;;5040345;28;20373;-31
2023/04/28 05:52:01;;;;;;;19.13;16.20;;;14.00;99.90;;;;;;5047389;28;20250;-32
2023/04/28 05:54:33;;;;;;;19.77;15.00;;;14.00;99.90;;;;;;5061513;28;20322;-31
2023/04/28 05:57:02;;;;;;;18.63;15.23;;;14.10;99.90;;;;;;5058963;28;20231;-31
2023/04/28 05:59:32;;;;;;;18.15;15.73;;;14.10;99.90;;;;;;5041532;28;20204;-31
2023/04/28 06:02:01;;;;;;;18.97;15.47;;;14.10;99.90;;;;;;5048309;28;20567;-31
2023/04/28 06:04:33;;;;;;;19.00;15.97;;;14.20;99.90;;;;;;5063462;28;20226;-31
2023/04/28 06:07:03;;;;;;;18.63;15.60;;;14.20;99.90;;;;;;5047702;28;20216;-31
2023/04/28 06:09:32;;;;;;;20.90;16.03;;;14.20;99.90;;;;;;5034014;28;20192;-31
2023/04/28 06:12:00;;;;;;;21.00;16.50;;;14.30;99.90;;;;;;5023425;28;20235;-31
2023/04/28 06:14:32;;;;;;;19.20;15.70;;;14.30;99.90;;;;;;5022528;28;20913;-31
2023/04/28 06:16:59;;;;;;;20.07;16.70;;;14.30;99.90;;;;;;5025526;28;20402;-31
2023/04/28 06:19:26;;;;;;;19.50;15.30;;;14.40;99.90;;;;;;5026062;28;20303;-31
2023/04/28 06:21:56;;;;;;;18.83;15.40;;;14.40;99.90;;;;;;5017421;28;20204;-31
2023/04/28 06:24:25;;;;;;;20.70;16.67;;;14.40;99.90;;;;;;5032626;28;20686;-31
2023/04/28 06:26:57;;;;;;;28.80;17.77;;;14.50;99.90;;;;;;5032329;28;20510;-31
2023/04/28 06:29:29;;;;;;;21.15;16.33;;;14.50;99.90;;;;;;5042377;28;20220;-31
2023/04/28 06:32:02;;;;;;;23.33;17.00;;;14.50;99.90;;;;;;5030014;28;20219;-31
2023/04/28 06:34:30;;;;;;;21.52;16.38;;;14.60;99.90;;;;;;5034911;28;20606;-31
2023/04/28 06:37:00;;;;;;;25.57;17.13;;;14.60;99.90;;;;;;5038553;28;20217;-31
2023/04/28 06:39:30;;;;;;;22.70;16.77;;;14.60;99.90;;;;;;5033773;28;20270;-31
2023/04/28 06:42:01;;;;;;;26.43;17.57;;;14.70;99.90;;;;;;5040212;28;20227;-31
2023/04/28 06:44:33;;;;;;;23.47;17.00;;;14.70;99.90;;;;;;5030283;28;20662;-31
2023/04/28 06:47:05;;;;;;;21.90;17.05;;;14.70;99.90;;;;;;5037201;28;20468;-31
2023/04/28 06:49:34;;;;;;;23.52;16.80;;;14.80;99.90;;;;;;5023537;28;20201;-31
2023/04/28 06:52:04;;;;;;;20.17;15.65;;;14.80;99.90;;;;;;5039275;28;20310;-31
2023/04/28 06:54:33;;;;;;;24.05;15.52;;;14.80;99.90;;;;;;5040584;28;20224;-31
2023/04/28 06:57:01;;;;;;;26.83;14.93;;;14.90;99.90;;;;;;5057142;28;20223;-31
2023/04/28 06:59:28;;;;;;;19.70;15.52;;;14.90;99.90;;;;;;5040965;28;20714;-32
2023/04/28 07:01:55;;;;;;;23.50;15.38;;;15.00;99.90;;;;;;5039329;28;20215;-31
2023/04/28 07:04:27;;;;;;;28.03;16.70;;;15.00;99.90;;;;;;5029651;28;20235;-31
2023/04/28 07:06:57;;;;;;;18.48;13.95;;;15.10;99.90;;;;;;5038148;28;20204;-31
2023/04/28 07:09:24;;;;;;;18.92;13.55;;;15.10;99.90;;;;;;5035456;28;20658;-31
2023/04/28 07:11:52;;;;;;;21.17;14.07;;;15.20;99.90;;;;;;5048389;28;20724;-31
2023/04/28 07:14:21;;;;;;;22.48;14.68;;;15.30;99.90;;;;;;5057307;28;20270;-31
2023/04/28 07:16:51;;;;;;;29.70;14.05;;;15.30;99.90;;;;;;5047898;28;20302;-30
2023/04/28 07:19:20;;;;;;;19.00;13.45;;;15.40;99.90;;;;;;5039705;28;20564;-31
2023/04/28 07:21:50;;;;;;;18.52;11.80;;;15.50;99.90;;;;;;5049859;28;20556;-30
2023/04/28 07:24:19;;;;;;;14.70;11.93;;;15.50;99.90;;;;;;5037874;28;20303;-31
2023/04/28 07:26:47;;;;;;;13.82;10.43;;;15.60;99.90;;;;;;5046706;28;20219;-31
2023/04/28 07:29:19;;;;;;;18.05;10.55;;;15.70;99.90;;;;;;5034901;28;20234;-31
2023/04/28 07:31:51;;;;;;;16.55;10.25;;;15.70;99.90;;;;;;5047314;28;20589;-31
2023/04/28 07:34:18;;;;;;;12.57;8.47;;;15.80;99.90;;;;;;5042104;28;20212;-31
2023/04/28 07:36:46;;;;;;;16.48;7.90;;;15.90;99.90;;;;;;5042434;28;20750;-31
2023/04/28 07:39:13;;;;;;;7.90;4.35;;;16.00;99.90;;;;;;5027672;28;20200;-31
2023/04/28 07:41:40;;;;;;;4.30;3.40;;;16.00;99.90;;;;;;5039424;28;20315;-31
2023/04/28 07:44:09;;;;;;;3.38;2.47;;;16.10;99.90;;;;;;5045336;28;20211;-31
2023/04/28 07:46:37;;;;;;;5.15;2.60;;;16.20;99.90;;;;;;5044519;28;20205;-31
2023/04/28 07:49:04;;;;;;;2.17;1.98;;;16.30;99.90;;;;;;5045566;28;20712;-31
2023/04/28 07:51:31;;;;;;;3.97;2.17;;;16.30;99.90;;;;;;5032701;28;20201;-31
2023/04/28 07:54:01;;;;;;;3.60;2.33;;;16.40;99.90;;;;;;5042781;28;20220;-30
2023/04/28 07:56:33;;;;;;;2.40;2.20;;;16.50;99.90;;;;;;5037658;28;20336;-31
2023/04/28 07:59:03;;;;;;;4.25;2.28;;;16.60;99.90;;;;;;5024685;28;20610;-31
2023/04/28 08:01:30;;;;;;;4.32;2.35;;;16.60;99.90;;;;;;5035382;28;20223;-31
2023/04/28 08:04:00;;;;;;;4.70;2.40;;;16.70;99.90;;;;;;5038692;28;20264;-31
2023/04/28 08:06:30;;;;;;;3.13;2.25;;;16.70;99.90;;;;;;5030131;28;20319;-31
2023/04/28 08:08:57;;;;;;;2.42;2.22;;;16.80;99.90;;;;;;5039161;28;20236;-31
2023/04/28 08:11:27;;;;;;;6.43;2.35;;;16.90;99.90;;;;;;5044825;28;20222;-31
2023/04/28 08:14:05;;;;;;;3.47;2.20;;;17.00;99.90;;;;;;5025859;28;20886;-31
2023/04/28 08:16:37;;;;;;;2.15;1.95;;;17.00;99.90;;;;;;5027436;28;20555;-31
2023/04/28 08:19:04;;;;;;;2.17;1.92;;;17.10;99.90;;;;;;5037918;28;20213;-31
2023/04/28 08:21:33;;;;;;;2.10;1.85;;;17.10;99.90;;;;;;5029746;28;20641;-30
2023/04/28 08:24:03;;;;;;;3.83;1.70;;;17.20;99.90;;;;;;5032292;28;20301;-31
2023/04/28 08:26:31;;;;;;;7.38;2.78;;;17.30;99.90;;;;;;5022996;28;20713;-30
2023/04/28 08:29:00;;;;;;;3.25;1.65;;;17.40;99.90;;;;;;5023209;28;20212;-31
2023/04/28 08:31:30;;;;;;;1.45;1.30;;;17.50;99.90;;;;;;5027842;28;20209;-31
2023/04/28 08:33:57;;;;;;;1.67;1.30;;;17.50;99.90;;;;;;5024347;28;20217;-31
2023/04/28 08:36:31;;;;;;;1.38;1.27;;;17.50;99.90;;;;;;5024613;28;20583;-31
2023/04/28 08:39:02;;;;;;;17.80;3.80;;;17.60;99.90;;;;;;5043642;28;20251;-31
2023/04/28 08:41:32;;;;;;;13.73;3.75;;;17.60;99.90;;;;;;5052393;28;20661;-31
2023/04/28 08:44:01;;;;;;;14.80;2.80;;;17.70;99.90;;;;;;5063935;28;20205;-31
2023/04/28 08:46:33;;;;;;;1.45;1.35;;;17.70;99.90;;;;;;5030024;28;20211;-31
2023/04/28 08:49:03;;;;;;;10.77;2.60;;;17.70;99.90;;;;;;5024187;28;20753;-31
2023/04/28 08:51:42;;;;;;;5.43;2.38;;;17.70;99.90;;;;;;5024981;28;20201;-31
2023/04/28 08:54:13;;;;;;;10.23;1.90;;;17.80;99.90;;;;;;5037692;28;20267;-31
2023/04/28 08:56:59;;;;;;;4.65;1.02;;;17.90;99.90;;;;;;5037034;28;20239;-31
2023/04/28 08:59:29;;;;;;;12.27;2.70;;;17.90;99.90;;;;;;5024104;28;20240;-31
2023/04/28 09:01:57;;;;;;;4.75;1.30;;;17.90;99.90;;;;;;5024382;28;20201;-31
2023/04/28 09:04:29;;;;;;;1.90;0.80;;;18.00;99.90;;;;;;5032795;28;20704;-31
2023/04/28 09:07:00;;;;;;;4.45;1.40;;;18.00;99.90;;;;;;5048669;28;20589;-31
2023/04/28 09:09:30;;;;;;;3.40;1.10;;;18.10;99.90;;;;;;5045312;28;20239;-31
2023/04/28 09:12:03;;;;;;;9.77;2.08;;;18.20;99.90;;;;;;5051365;28;20269;-30
2023/04/28 09:14:37;;;;;;;2.90;0.70;;;18.30;99.90;;;;;;5043729;28;20212;-31
2023/04/28 09:17:16;;;;;;;0.90;0.70;;;18.30;99.90;;;;;;5042074;28;20314;-31
2023/04/28 09:19:45;;;;;;;1.33;0.77;;;18.40;99.90;;;;;;5062403;28;20203;-31
2023/04/28 09:22:15;;;;;;;0.73;0.70;;;18.50;99.90;;;;;;5033477;28;20267;-31
2023/04/28 09:24:54;;;;;;;3.75;1.27;;;18.40;99.90;;;;;;5037732;28;20221;-31
2023/04/28 09:27:32;;;;;;;6.88;1.60;;;18.50;99.90;;;;;;5051643;28;20211;-31
2023/04/28 09:30:05;;;;;;;3.67;1.10;;;18.50;99.90;;;;;;5045647;28;20211;-31
2023/04/28 09:32:35;;;;;;;4.28;0.80;;;18.50;99.90;;;;;;5023247;28;20237;-31
2023/04/28 09:35:06;;;;;;;2.22;0.90;;;18.50;99.90;;;;;;5024692;28;20236;-30
2023/04/28 09:37:34;;;;;;;0.80;0.80;;;18.50;99.90;;;;;;5034477;28;20648;-31
2023/04/28 09:40:10;;;;;;;6.25;1.98;;;18.50;99.90;;;;;;5032758;28;20212;-31
2023/04/28 09:42:42;;;;;;;4.03;1.25;;;18.50;99.90;;;;;;5025293;28;20429;-31
2023/04/28 09:45:11;;;;;;;8.00;1.35;;;18.50;99.90;;;;;;5026954;28;20212;-31
2023/04/28 09:47:45;;;;;;;6.00;2.10;;;18.50;99.90;;;;;;5036721;28;20195;-31
2023/04/28 09:50:14;;;;;;;6.18;2.05;;;18.60;99.90;;;;;;5029608;28;20227;-31
2023/04/28 09:52:44;;;;;;;2.63;1.17;;;18.60;99.90;;;;;;5039369;28;20200;-30
2023/04/28 09:55:19;;;;;;;1.30;1.00;;;18.70;99.90;;;;;;5034269;28;20298;-31
2023/04/28 09:57:53;;;;;;;1.90;1.63;;;18.80;99.90;;;;;;5041642;28;20325;-31
2023/04/28 10:00:26;;;;;;;3.42;1.77;;;18.80;99.90;;;;;;5030913;28;20263;-30
2023/04/28 10:02:53;;;;;;;6.72;2.10;;;18.90;99.90;;;;;;5025023;28;20606;-31
2023/04/28 10:05:25;;;;;;;3.67;1.90;;;18.90;99.90;;;;;;5030663;28;20204;-31
2023/04/28 10:07:54;;;;;;;2.50;2.17;;;19.00;99.90;;;;;;5029575;28;20222;-31
2023/04/28 10:10:26;;;;;;;2.10;1.90;;;19.00;99.90;;;;;;5022083;28;20209;-31
2023/04/28 10:13:01;;;;;;;2.08;1.58;;;19.10;99.90;;;;;;5039059;28;20298;-31
2023/04/28 10:15:32;;;;;;;2.72;2.15;;;19.20;99.90;;;;;;5036817;28;20762;-31
2023/04/28 10:18:04;;;;;;;2.67;1.73;;;19.20;99.90;;;;;;5011624;28;20662;-30
2023/04/28 10:20:35;;;;;;;2.25;1.90;;;19.30;99.90;;;;;;5044613;28;20205;-31
2023/04/28 10:23:23;;;;;;;5.25;2.38;;;19.30;99.90;;;;;;5028222;28;20584;-31
2023/04/28 10:25:58;;;;;;;5.57;1.98;;;19.40;99.90;;;;;;5032759;28;20213;-31
2023/04/28 10:28:26;;;;;;;2.83;1.98;;;19.40;99.90;;;;;;5040539;28;20226;-31
2023/04/28 10:31:14;;;;;;;1.70;1.60;;;19.40;99.90;;;;;;5032127;28;20322;-31
2023/04/28 10:33:44;;;;;;;2.75;2.20;;;19.50;99.90;;;;;;5032759;28;20640;-31
2023/04/28 10:36:54;;;;;;;2.70;2.50;;;19.50;99.90;;;;;;5036465;28;20216;-31
2023/04/28 10:39:22;;;;;;;2.95;2.65;;;19.50;99.90;;;;;;5042853;28;20204;-30
2023/04/28 10:41:51;;;;;;;3.50;3.20;;;19.50;99.90;;;;;;5032489;28;20216;-31
2023/04/28 10:44:27;;;;;;;3.30;3.00;;;19.50;99.90;;;;;;5036393;28;20235;-31
2023/04/28 10:47:05;;;;;;;3.30;3.00;;;19.50;99.90;;;;;;5034863;28;20202;-30
2023/04/28 10:49:56;;;;;;;5.38;3.05;;;19.50;99.90;;;;;;5048858;28;20211;-31
2023/04/28 10:52:35;;;;;;;2.53;2.30;;;19.50;99.90;;;;;;5048321;28;20200;-31
2023/04/28 10:55:35;;;;;;;3.95;2.47;;;19.50;99.90;;;;;;5036633;28;20223;-31
2023/04/28 10:58:28;;;;;;;2.17;1.83;;;19.60;99.90;;;;;;5052645;28;20642;-31
2023/04/28 11:01:23;;;;;;;4.30;1.70;;;19.50;99.90;;;;;;5062154;28;20689;-31
2023/04/28 11:04:11;;;;;;;2.53;1.33;;;19.60;99.90;;;;;;5040660;28;20196;-31
2023/04/28 11:06:46;;;;;;;1.40;1.30;;;19.60;99.90;;;;;;5027032;28;20693;-31
2023/04/28 11:09:17;;;;;;;1.08;1.00;;;19.70;99.90;;;;;;5037650;28;20389;-31
2023/04/28 11:11:55;;;;;;;1.95;1.00;;;19.70;99.90;;;;;;5043561;28;20642;-31
2023/04/28 11:14:22;;;;;;;1.70;1.30;;;19.70;99.90;;;;;;5031845;28;20249;-31
2023/04/28 11:16:58;;;;;;;1.08;0.80;;;19.60;99.90;;;;;;5031847;28;20259;-31
2023/04/28 11:19:37;;;;;;;2.05;1.00;;;19.70;99.90;;;;;;5024924;28;20223;-31
2023/04/28 11:22:11;;;;;;;1.00;1.00;;;19.70;99.90;;;;;;5052013;28;20316;-31
2023/04/28 11:24:53;;;;;;;1.88;0.85;;;19.70;99.90;;;;;;5029812;28;20319;-31
2023/04/28 11:27:27;;;;;;;3.08;1.02;;;19.70;99.90;;;;;;5039586;28;20320;-31
2023/04/28 11:30:03;;;;;;;3.20;1.52;;;19.70;99.90;;;;;;5044020;28;20223;-30
2023/04/28 11:32:34;;;;;;;2.03;1.40;;;19.70;99.90;;;;;;5035587;28;20248;-31
2023/04/28 11:35:08;;;;;;;1.55;1.00;;;19.60;99.90;;;;;;5043077;28;20266;-31
2023/04/28 11:37:38;;;;;;;7.97;1.73;;;19.60;99.90;;;;;;5035764;28;20216;-31
2023/04/28 11:40:12;;;;;;;5.20;1.63;;;19.70;99.90;;;;;;5033552;28;20296;-31
2023/04/28 11:42:49;;;;;;;1.40;1.17;;;19.70;99.90;;;;;;5028535;28;20712;-31
2023/04/28 11:45:16;;;;;;;1.17;1.08;;;19.80;99.90;;;;;;5045309;28;20246;-31
2023/04/28 11:47:46;;;;;;;0.98;0.90;;;19.80;99.90;;;;;;5026270;28;20239;-31
2023/04/28 11:50:16;;;;;;;1.45;1.20;;;19.80;99.90;;;;;;5026111;28;20524;-31
2023/04/28 11:52:52;;;;;;;3.95;1.65;;;19.70;99.90;;;;;;5027570;28;20569;-31
2023/04/28 11:55:27;;;;;;;2.63;2.00;;;19.70;99.90;;;;;;5033387;28;20216;-30
2023/04/28 11:58:23;;;;;;;2.13;1.70;;;19.70;99.90;;;;;;5043813;28;20285;-31
2023/04/28 12:01:14;;;;;;;2.13;2.00;;;19.60;99.90;;;;;;5043249;28;20224;-30
2023/04/28 12:03:47;;;;;;;2.25;1.95;;;19.60;99.90;;;;;;5042065;28;20203;-31
2023/04/28 12:06:18;;;;;;;6.45;2.80;;;19.50;99.90;;;;;;5031906;28;20205;-31
2023/04/28 12:08:52;;;;;;;2.95;2.20;;;19.40;99.90;;;;;;5022816;28;20212;-30
2023/04/28 12:11:22;;;;;;;2.50;2.30;;;19.40;99.90;;;;;;5031731;28;20372;-31
2023/04/28 12:14:07;;;;;;;2.33;2.13;;;19.30;99.90;;;;;;5036348;28;20577;-30
2023/04/28 12:16:43;;;;;;;2.00;1.90;;;19.30;99.90;;;;;;5048426;28;20251;-31
2023/04/28 12:19:11;;;;;;;1.95;1.75;;;19.20;99.90;;;;;;5030755;28;20211;-31
2023/04/28 12:21:44;;;;;;;2.03;1.45;;;19.20;99.90;;;;;;5031890;28;20687;-31
2023/04/28 12:24:24;;;;;;;7.40;1.48;;;19.10;99.90;;;;;;5031793;28;20590;-31
2023/04/28 12:26:53;;;;;;;3.67;1.88;;;19.10;99.90;;;;;;5045462;28;20685;-31
2023/04/28 12:29:38;;;;;;;2.03;1.23;;;19.00;99.90;;;;;;5027113;28;20208;-30
2023/04/28 12:32:08;;;;;;;1.67;1.58;;;19.00;99.90;;;;;;5036226;28;20228;-31
2023/04/28 12:34:38;;;;;;;4.38;2.05;;;18.90;99.90;;;;;;5028180;28;20623;-31
2023/04/28 12:37:08;;;;;;;3.75;1.50;;;18.80;99.90;;;;;;5024621;28;20570;-30
2023/04/28 12:39:37;;;;;;;2.95;1.38;;;18.80;99.90;;;;;;5028988;28;20227;-31
2023/04/28 12:42:08;;;;;;;6.35;2.22;;;18.80;99.90;;;;;;5039227;28;20201;-31
2023/04/28 12:44:39;;;;;;;1.67;1.20;;;18.80;99.90;;;;;;5024447;28;20324;-31
2023/04/28 12:47:15;;;;;;;3.72;1.20;;;18.80;99.90;;;;;;5052004;28;20217;-31
2023/04/28 12:49:43;;;;;;;1.42;0.95;;;18.80;99.90;;;;;;5043064;28;20195;-31
2023/04/28 12:52:13;;;;;;;2.53;1.08;;;18.80;99.90;;;;;;5039089;28;20214;-31
2023/04/28 12:54:45;;;;;;;4.50;1.17;;;18.80;99.90;;;;;;5032567;28;20216;-31